Bodfish, California
Current Conditions -  °F | °C
As of 10:15 AM on Monday 22 Dec 2014 (Local Time) from KTSP Reporting Station
Broken Clouds Broken Clouds  
Wind Chill: 50°   Ceiling: 1400
Heat Index: 50°   Visibility: 9mi
Dew Point: 46°   Wind: 15mph
Humidity: 87%   Direction: 310°NW
Pressure: 30.26"   Gusts: NA
Location:  35.59°N, 118.49°W
Report Text: KTSP 221815Z AUTO 31013KT 9SM FEW009 BKN014 10/08 A3026 RMK AO2
Loading
Personal Weather Stations






























Interactive Weather Map New forecast layout! Learn more

10-Day Weather Forecast

Advertisements
Track Severe Weather on mobile